VLG3722 LEBL-LEMH
Flight info
| Callsign | VLG3722 |
|---|---|
| Flight time | 0h 28m |
| Altitude | 19000 |
| Route | DUNES Q700 SARGO |
| Aircraft | A320/M-SDE3FGHIRWY/LB1 |
Departure
| Time | 2026-05-05 19:38 |
|---|---|
| Airport | Josep Tarradellas Barcelona-El Prat Airport (LEBL) |
Arrival
| Time | 2026-05-05 20:06 |
|---|---|
| Airport | Menorca Airport (LEMH) |
| Time | Latitude | Longitude | Altitude | Speed | Heading |
|---|---|---|---|---|---|
| 2026-05-05 18:55 | 41.29076 | 2.07742 | 19 ft | 0 kts | 155° |
| 2026-05-05 19:21 | 41.29092 | 2.07733 | 20 ft | 4 kts | 155° |
| 2026-05-05 19:21 | 41.29112 | 2.07721 | 21 ft | 3 kts | 155° |
| 2026-05-05 19:21 | 41.29132 | 2.07701 | 19 ft | 4 kts | 123° |
| 2026-05-05 19:22 | 41.29147 | 2.07673 | 20 ft | 4 kts | 147° |
| 2026-05-05 19:22 | 41.29165 | 2.07661 | 20 ft | 4 kts | 155° |
| 2026-05-05 19:22 | 41.29176 | 2.07654 | 21 ft | 0 kts | 155° |
| 2026-05-05 19:29 | 41.29159 | 2.07668 | 20 ft | 6 kts | 138° |
| 2026-05-05 19:29 | 41.29169 | 2.07740 | 20 ft | 11 kts | 64° |
| 2026-05-05 19:29 | 41.29202 | 2.07838 | 19 ft | 13 kts | 65° |
| 2026-05-05 19:29 | 41.29240 | 2.07949 | 19 ft | 13 kts | 65° |
| 2026-05-05 19:30 | 41.29273 | 2.08044 | 19 ft | 10 kts | 64° |
| 2026-05-05 19:30 | 41.29302 | 2.08130 | 19 ft | 10 kts | 66° |
| 2026-05-05 19:30 | 41.29333 | 2.08219 | 19 ft | 10 kts | 64° |
| 2026-05-05 19:30 | 41.29361 | 2.08301 | 19 ft | 9 kts | 66° |
| 2026-05-05 19:31 | 41.29364 | 2.08374 | 19 ft | 7 kts | 121° |
| 2026-05-05 19:31 | 41.29327 | 2.08402 | 21 ft | 6 kts | 155° |
| 2026-05-05 19:31 | 41.29296 | 2.08421 | 21 ft | 5 kts | 155° |
| 2026-05-05 19:31 | 41.29252 | 2.08447 | 21 ft | 11 kts | 156° |
| 2026-05-05 19:32 | 41.29157 | 2.08504 | 20 ft | 16 kts | 155° |
| 2026-05-05 19:32 | 41.29073 | 2.08555 | 16 ft | 12 kts | 155° |
| 2026-05-05 19:32 | 41.29003 | 2.08597 | 18 ft | 10 kts | 156° |
| 2026-05-05 19:32 | 41.28935 | 2.08638 | 18 ft | 12 kts | 156° |
| 2026-05-05 19:33 | 41.28865 | 2.08713 | 17 ft | 14 kts | 103° |
| 2026-05-05 19:33 | 41.28893 | 2.08818 | 16 ft | 11 kts | 65° |
| 2026-05-05 19:33 | 41.28923 | 2.08906 | 17 ft | 10 kts | 66° |
| 2026-05-05 19:33 | 41.28953 | 2.08997 | 18 ft | 12 kts | 65° |
| 2026-05-05 19:34 | 41.28994 | 2.09117 | 18 ft | 15 kts | 65° |
| 2026-05-05 19:34 | 41.29036 | 2.09240 | 17 ft | 16 kts | 65° |
| 2026-05-05 19:34 | 41.29096 | 2.09414 | 17 ft | 23 kts | 65° |
| 2026-05-05 19:35 | 41.29216 | 2.09762 | 17 ft | 20 kts | 66° |
| 2026-05-05 19:35 | 41.29254 | 2.09876 | 18 ft | 11 kts | 65° |
| 2026-05-05 19:35 | 41.29293 | 2.09953 | 17 ft | 9 kts | 58° |
| 2026-05-05 19:35 | 41.29317 | 2.10022 | 17 ft | 9 kts | 66° |
| 2026-05-05 19:36 | 41.29322 | 2.10092 | 16 ft | 8 kts | 112° |
| 2026-05-05 19:36 | 41.29302 | 2.10161 | 14 ft | 8 kts | 110° |
| 2026-05-05 19:36 | 41.29281 | 2.10237 | -1 ft | 9 kts | 110° |
| 2026-05-05 19:36 | 41.29246 | 2.10299 | 14 ft | 9 kts | 159° |
| 2026-05-05 19:37 | 41.29206 | 2.10282 | 15 ft | 4 kts | 231° |
| 2026-05-05 19:37 | 41.29193 | 2.10245 | 16 ft | 10 kts | 245° |
| 2026-05-05 19:37 | 41.29074 | 2.09896 | 19 ft | 77 kts | 245° |
| 2026-05-05 19:37 | 41.28766 | 2.08994 | 20 ft | 134 kts | 245° |
| 2026-05-05 19:38 | 41.28335 | 2.07738 | 375 ft | 150 kts | 250° |
| 2026-05-05 19:38 | 41.27840 | 2.06549 | 1052 ft | 154 kts | 226° |
| 2026-05-05 19:38 | 41.26771 | 2.06015 | 1401 ft | 183 kts | 186° |
| 2026-05-05 19:38 | 41.25422 | 2.05995 | 1689 ft | 206 kts | 185° |
| 2026-05-05 19:39 | 41.23929 | 2.05939 | 2126 ft | 218 kts | 185° |
| 2026-05-05 19:39 | 41.22389 | 2.05878 | 2754 ft | 224 kts | 185° |
| 2026-05-05 19:39 | 41.20827 | 2.05821 | 3547 ft | 227 kts | 183° |
| 2026-05-05 19:39 | 41.19201 | 2.06292 | 3958 ft | 257 kts | 153° |
| 2026-05-05 19:40 | 41.17910 | 2.08035 | 4514 ft | 278 kts | 117° |
| 2026-05-05 19:40 | 41.17163 | 2.10432 | 5342 ft | 283 kts | 111° |
| 2026-05-05 19:40 | 41.16463 | 2.12892 | 6246 ft | 287 kts | 110° |
| 2026-05-05 19:40 | 41.15764 | 2.15386 | 7087 ft | 290 kts | 111° |
| 2026-05-05 19:41 | 41.15055 | 2.17914 | 7916 ft | 295 kts | 111° |
| 2026-05-05 19:41 | 41.14335 | 2.20447 | 8732 ft | 299 kts | 112° |
| 2026-05-05 19:41 | 41.13588 | 2.23049 | 9545 ft | 304 kts | 112° |
| 2026-05-05 19:41 | 41.12822 | 2.25698 | 10222 ft | 314 kts | 112° |
| 2026-05-05 19:42 | 41.12011 | 2.28501 | 10471 ft | 338 kts | 112° |
| 2026-05-05 19:42 | 41.11145 | 2.31480 | 10914 ft | 352 kts | 114° |
| 2026-05-05 19:42 | 41.10260 | 2.34531 | 11594 ft | 357 kts | 114° |
| 2026-05-05 19:42 | 41.09364 | 2.37620 | 12352 ft | 361 kts | 114° |
| 2026-05-05 19:43 | 41.08463 | 2.40735 | 13113 ft | 363 kts | 115° |
| 2026-05-05 19:43 | 41.07566 | 2.43837 | 13832 ft | 366 kts | 115° |
| 2026-05-05 19:43 | 41.06649 | 2.47005 | 14473 ft | 370 kts | 115° |
| 2026-05-05 19:43 | 41.05721 | 2.50200 | 15095 ft | 374 kts | 115° |
| 2026-05-05 19:44 | 41.04781 | 2.53427 | 15703 ft | 378 kts | 116° |
| 2026-05-05 19:44 | 41.03828 | 2.56691 | 16311 ft | 382 kts | 116° |
| 2026-05-05 19:44 | 41.02862 | 2.59986 | 16919 ft | 386 kts | 116° |
| 2026-05-05 19:44 | 41.01885 | 2.63317 | 17518 ft | 390 kts | 116° |
| 2026-05-05 19:45 | 41.00894 | 2.66684 | 18114 ft | 394 kts | 117° |
| 2026-05-05 19:45 | 40.99894 | 2.70088 | 18559 ft | 400 kts | 117° |
| 2026-05-05 19:45 | 40.98879 | 2.73542 | 18832 ft | 404 kts | 118° |
| 2026-05-05 19:45 | 40.97863 | 2.77000 | 18906 ft | 399 kts | 118° |
| 2026-05-05 19:46 | 40.96879 | 2.80357 | 18916 ft | 396 kts | 118° |
| 2026-05-05 19:46 | 40.95884 | 2.83745 | 18917 ft | 394 kts | 118° |
| 2026-05-05 19:46 | 40.94887 | 2.87123 | 18916 ft | 394 kts | 118° |
| 2026-05-05 19:46 | 40.93890 | 2.90500 | 18915 ft | 394 kts | 118° |
| 2026-05-05 19:47 | 40.92893 | 2.93877 | 18916 ft | 394 kts | 118° |
| 2026-05-05 19:47 | 40.91894 | 2.97252 | 18914 ft | 394 kts | 118° |
| 2026-05-05 19:47 | 40.90892 | 3.00621 | 18916 ft | 394 kts | 118° |
| 2026-05-05 19:47 | 40.89889 | 3.03990 | 18914 ft | 394 kts | 118° |
| 2026-05-05 19:48 | 40.88898 | 3.07312 | 18893 ft | 394 kts | 118° |
| 2026-05-05 19:48 | 40.87892 | 3.10678 | 18897 ft | 394 kts | 118° |
| 2026-05-05 19:48 | 40.86885 | 3.14042 | 18896 ft | 394 kts | 118° |
| 2026-05-05 19:48 | 40.85721 | 3.17281 | 18880 ft | 387 kts | 127° |
| 2026-05-05 19:49 | 40.84385 | 3.20369 | 18889 ft | 388 kts | 127° |
| 2026-05-05 19:49 | 40.83501 | 3.22416 | 18890 ft | 388 kts | 127° |
| 2026-05-05 19:49 | 40.81713 | 3.26559 | 18894 ft | 388 kts | 127° |
| 2026-05-05 19:49 | 40.80375 | 3.29660 | 18898 ft | 389 kts | 127° |
| 2026-05-05 19:50 | 40.79056 | 3.32718 | 18897 ft | 389 kts | 127° |
| 2026-05-05 19:50 | 40.77717 | 3.35816 | 18900 ft | 389 kts | 127° |
| 2026-05-05 19:50 | 40.76376 | 3.38917 | 18903 ft | 389 kts | 127° |
| 2026-05-05 19:50 | 40.75035 | 3.42016 | 18905 ft | 389 kts | 127° |
| 2026-05-05 19:51 | 40.73690 | 3.45113 | 18906 ft | 389 kts | 127° |
| 2026-05-05 19:51 | 40.72346 | 3.48206 | 18920 ft | 389 kts | 127° |
| 2026-05-05 19:51 | 40.71000 | 3.51302 | 18916 ft | 389 kts | 127° |
| 2026-05-05 19:51 | 40.69651 | 3.54403 | 18922 ft | 389 kts | 127° |
| 2026-05-05 19:52 | 40.68304 | 3.57493 | 18926 ft | 389 kts | 127° |
| 2026-05-05 19:52 | 40.66990 | 3.60515 | 18698 ft | 381 kts | 127° |
| 2026-05-05 19:52 | 40.65689 | 3.63517 | 18460 ft | 373 kts | 127° |
| 2026-05-05 19:52 | 40.64415 | 3.66451 | 18233 ft | 366 kts | 127° |
| 2026-05-05 19:53 | 40.63154 | 3.69338 | 17972 ft | 362 kts | 127° |
| 2026-05-05 19:53 | 40.61897 | 3.72196 | 17704 ft | 359 kts | 127° |
| 2026-05-05 19:53 | 40.60657 | 3.75017 | 17348 ft | 355 kts | 127° |
| 2026-05-05 19:53 | 40.59422 | 3.77823 | 16915 ft | 354 kts | 127° |
| 2026-05-05 19:54 | 40.58190 | 3.80618 | 16480 ft | 352 kts | 127° |
| 2026-05-05 19:54 | 40.56964 | 3.83400 | 16064 ft | 351 kts | 127° |
| 2026-05-05 19:54 | 40.55758 | 3.86139 | 15643 ft | 350 kts | 127° |
| 2026-05-05 19:54 | 40.54540 | 3.88906 | 15220 ft | 350 kts | 127° |
| 2026-05-05 19:55 | 40.53303 | 3.91657 | 14684 ft | 349 kts | 130° |
| 2026-05-05 19:55 | 40.51637 | 3.93940 | 13939 ft | 344 kts | 151° |
| 2026-05-05 19:55 | 40.49624 | 3.95518 | 13631 ft | 334 kts | 156° |
| 2026-05-05 19:55 | 40.47622 | 3.97032 | 13185 ft | 329 kts | 156° |
| 2026-05-05 19:56 | 40.45652 | 3.98528 | 12451 ft | 326 kts | 156° |
| 2026-05-05 19:56 | 40.43696 | 4.00009 | 11820 ft | 321 kts | 155° |
| 2026-05-05 19:56 | 40.41819 | 4.01431 | 11412 ft | 311 kts | 155° |
| 2026-05-05 19:56 | 40.39980 | 4.02827 | 11011 ft | 301 kts | 155° |
| 2026-05-05 19:57 | 40.38164 | 4.04196 | 10635 ft | 300 kts | 155° |
| 2026-05-05 19:57 | 40.36940 | 4.05116 | 10375 ft | 300 kts | 155° |
| 2026-05-05 19:57 | 40.34544 | 4.06912 | 9946 ft | 297 kts | 155° |
| 2026-05-05 19:57 | 40.32771 | 4.08241 | 9725 ft | 290 kts | 155° |
| 2026-05-05 19:58 | 40.31008 | 4.09561 | 9242 ft | 294 kts | 154° |
| 2026-05-05 19:58 | 40.29245 | 4.10882 | 8851 ft | 292 kts | 154° |
| 2026-05-05 19:58 | 40.27479 | 4.12207 | 8477 ft | 290 kts | 154° |
| 2026-05-05 19:58 | 40.25738 | 4.13513 | 8051 ft | 287 kts | 154° |
| 2026-05-05 19:59 | 40.24034 | 4.14791 | 7429 ft | 286 kts | 154° |
| 2026-05-05 19:59 | 40.22308 | 4.16081 | 6812 ft | 285 kts | 154° |
| 2026-05-05 19:59 | 40.20586 | 4.17366 | 6253 ft | 283 kts | 154° |
| 2026-05-05 19:59 | 40.18890 | 4.18632 | 5787 ft | 279 kts | 154° |
| 2026-05-05 20:00 | 40.17209 | 4.19885 | 5299 ft | 277 kts | 153° |
| 2026-05-05 20:00 | 40.15589 | 4.21096 | 5122 ft | 259 kts | 153° |
| 2026-05-05 20:00 | 40.14071 | 4.22234 | 4856 ft | 247 kts | 153° |
| 2026-05-05 20:00 | 40.12609 | 4.23327 | 4412 ft | 245 kts | 153° |
| 2026-05-05 20:01 | 40.11136 | 4.24427 | 3935 ft | 244 kts | 153° |
| 2026-05-05 20:01 | 40.09674 | 4.25516 | 3649 ft | 241 kts | 153° |
| 2026-05-05 20:01 | 40.08159 | 4.26401 | 3506 ft | 236 kts | 172° |
| 2026-05-05 20:01 | 40.06620 | 4.26256 | 3403 ft | 214 kts | 201° |
| 2026-05-05 20:02 | 40.05202 | 4.25791 | 3296 ft | 208 kts | 195° |
| 2026-05-05 20:02 | 40.03800 | 4.25482 | 3196 ft | 201 kts | 193° |
| 2026-05-05 20:02 | 40.02448 | 4.25204 | 3116 ft | 192 kts | 193° |
| 2026-05-05 20:02 | 40.01171 | 4.24942 | 3025 ft | 182 kts | 194° |
| 2026-05-05 20:03 | 39.99954 | 4.24690 | 2802 ft | 178 kts | 193° |
| 2026-05-05 20:03 | 39.98745 | 4.24440 | 2584 ft | 174 kts | 193° |
| 2026-05-05 20:03 | 39.97561 | 4.24195 | 2363 ft | 171 kts | 193° |
| 2026-05-05 20:03 | 39.96412 | 4.23958 | 2143 ft | 165 kts | 193° |
| 2026-05-05 20:04 | 39.95316 | 4.23733 | 1938 ft | 152 kts | 193° |
| 2026-05-05 20:04 | 39.94304 | 4.23525 | 1726 ft | 144 kts | 193° |
| 2026-05-05 20:04 | 39.93325 | 4.23323 | 1535 ft | 141 kts | 194° |
| 2026-05-05 20:04 | 39.92361 | 4.23123 | 1346 ft | 140 kts | 193° |
| 2026-05-05 20:05 | 39.91416 | 4.22929 | 1165 ft | 139 kts | 193° |
| 2026-05-05 20:05 | 39.90472 | 4.22733 | 975 ft | 138 kts | 192° |
| 2026-05-05 20:05 | 39.89527 | 4.22533 | 826 ft | 136 kts | 191° |
| 2026-05-05 20:05 | 39.88579 | 4.22334 | 650 ft | 138 kts | 190° |
| 2026-05-05 20:06 | 39.87646 | 4.22154 | 439 ft | 135 kts | 190° |
| 2026-05-05 20:06 | 39.86736 | 4.21973 | 317 ft | 125 kts | 192° |
| 2026-05-05 20:06 | 39.85991 | 4.21810 | 301 ft | 85 kts | 188° |
| 2026-05-05 20:06 | 39.85588 | 4.21729 | 299 ft | 39 kts | 190° |
| 2026-05-05 20:07 | 39.85334 | 4.21674 | 287 ft | 36 kts | 189° |
| 2026-05-05 20:07 | 39.85180 | 4.21650 | 286 ft | 14 kts | 169° |
| 2026-05-05 20:07 | 39.85139 | 4.21729 | 284 ft | 9 kts | 96° |
| 2026-05-05 20:07 | 39.85130 | 4.21812 | 283 ft | 8 kts | 100° |
| 2026-05-05 20:08 | 39.85143 | 4.21870 | 282 ft | 7 kts | 36° |
| 2026-05-05 20:08 | 39.85187 | 4.21883 | 282 ft | 6 kts | 8° |
| 2026-05-05 20:08 | 39.85220 | 4.21890 | 282 ft | 4 kts | 9° |
| 2026-05-05 20:08 | 39.85262 | 4.21898 | 284 ft | 13 kts | 9° |
| 2026-05-05 20:09 | 39.85381 | 4.21923 | 294 ft | 17 kts | 9° |
| 2026-05-05 20:09 | 39.85488 | 4.21946 | 292 ft | 14 kts | 8° |
| 2026-05-05 20:09 | 39.85577 | 4.21964 | 295 ft | 12 kts | 9° |
| 2026-05-05 20:09 | 39.85646 | 4.21978 | 295 ft | 9 kts | 9° |
| 2026-05-05 20:10 | 39.85695 | 4.21988 | 297 ft | 7 kts | 9° |
| 2026-05-05 20:10 | 39.85762 | 4.22002 | 297 ft | 12 kts | 8° |
| 2026-05-05 20:10 | 39.85865 | 4.22023 | 296 ft | 18 kts | 9° |
| 2026-05-05 20:10 | 39.85977 | 4.22046 | 295 ft | 14 kts | 9° |
| 2026-05-05 20:11 | 39.86067 | 4.22064 | 297 ft | 13 kts | 9° |
| 2026-05-05 20:11 | 39.86147 | 4.22082 | 297 ft | 11 kts | 12° |
| 2026-05-05 20:11 | 39.86190 | 4.22137 | 295 ft | 7 kts | 82° |
| 2026-05-05 20:11 | 39.86185 | 4.22199 | 295 ft | 7 kts | 97° |
| 2026-05-05 20:12 | 39.86207 | 4.22265 | 298 ft | 9 kts | 25° |
| 2026-05-05 20:12 | 39.86268 | 4.22276 | 296 ft | 9 kts | 7° |
| 2026-05-05 20:12 | 39.86325 | 4.22288 | 295 ft | 8 kts | 9° |
| 2026-05-05 20:12 | 39.86377 | 4.22299 | 296 ft | 7 kts | 9° |
| 2026-05-05 20:13 | 39.86417 | 4.22307 | 299 ft | 2 kts | 8° |
| 2026-05-05 20:13 | 39.86434 | 4.22317 | 297 ft | 3 kts | 51° |
| 2026-05-05 20:13 | 39.86427 | 4.22353 | 297 ft | 4 kts | 103° |
| 2026-05-05 20:13 | 39.86425 | 4.22376 | 300 ft | 2 kts | 98° |
| 2026-05-05 20:14 | 39.86423 | 4.22391 | 298 ft | 1 kts | 98° |
| 2026-05-05 20:14 | 39.86422 | 4.22397 | 297 ft | 0 kts | 98° |